sensor_id;sensor_type;location;lat;lon;timestamp;P1;durP1;ratioP1;P2;durP2;ratioP2
13051;SDS011;6592;47.484;9.726;2023-06-26T00:00:20;7.25;;;3.25;;
13051;SDS011;6592;47.484;9.726;2023-06-26T00:02:49;5.88;;;3.58;;
13051;SDS011;6592;47.484;9.726;2023-06-26T00:05:19;6.20;;;3.55;;
13051;SDS011;6592;47.484;9.726;2023-06-26T00:07:48;6.50;;;3.87;;
13051;SDS011;6592;47.484;9.726;2023-06-26T00:10:18;6.07;;;3.65;;
13051;SDS011;6592;47.484;9.726;2023-06-26T00:12:47;6.72;;;3.70;;
13051;SDS011;6592;47.484;9.726;2023-06-26T00:15:19;6.68;;;3.45;;
13051;SDS011;6592;47.484;9.726;2023-06-26T00:17:48;5.55;;;3.50;;
13051;SDS011;6592;47.484;9.726;2023-06-26T00:20:19;5.95;;;3.63;;
13051;SDS011;6592;47.484;9.726;2023-06-26T00:22:50;7.03;;;3.60;;
13051;SDS011;6592;47.484;9.726;2023-06-26T00:25:20;6.57;;;3.40;;
13051;SDS011;6592;47.484;9.726;2023-06-26T00:27:50;5.82;;;3.40;;
13051;SDS011;6592;47.484;9.726;2023-06-26T00:30:19;5.70;;;3.20;;
13051;SDS011;6592;47.484;9.726;2023-06-26T00:32:48;5.43;;;3.25;;
13051;SDS011;6592;47.484;9.726;2023-06-26T00:35:17;5.60;;;3.22;;
13051;SDS011;6592;47.484;9.726;2023-06-26T00:37:47;5.28;;;3.28;;
13051;SDS011;6592;47.484;9.726;2023-06-26T00:40:16;6.50;;;3.60;;
13051;SDS011;6592;47.484;9.726;2023-06-26T00:42:45;6.28;;;3.17;;
13051;SDS011;6592;47.484;9.726;2023-06-26T00:45:16;7.85;;;3.65;;
13051;SDS011;6592;47.484;9.726;2023-06-26T00:48:03;5.93;;;3.55;;
13051;SDS011;6592;47.484;9.726;2023-06-26T00:50:35;6.93;;;3.40;;
13051;SDS011;6592;47.484;9.726;2023-06-26T00:53:06;6.18;;;3.40;;
13051;SDS011;6592;47.484;9.726;2023-06-26T00:55:36;7.10;;;3.88;;
13051;SDS011;6592;47.484;9.726;2023-06-26T00:58:04;6.03;;;3.42;;
13051;SDS011;6592;47.484;9.726;2023-06-26T01:00:35;5.65;;;3.33;;
13051;SDS011;6592;47.484;9.726;2023-06-26T01:03:05;6.65;;;3.50;;
13051;SDS011;6592;47.484;9.726;2023-06-26T01:05:34;6.70;;;3.70;;
13051;SDS011;6592;47.484;9.726;2023-06-26T01:08:03;6.40;;;3.30;;
13051;SDS011;6592;47.484;9.726;2023-06-26T01:10:33;6.07;;;3.55;;
13051;SDS011;6592;47.484;9.726;2023-06-26T01:13:04;6.03;;;3.35;;
13051;SDS011;6592;47.484;9.726;2023-06-26T01:15:36;6.82;;;3.30;;
13051;SDS011;6592;47.484;9.726;2023-06-26T01:18:05;6.93;;;3.53;;
13051;SDS011;6592;47.484;9.726;2023-06-26T01:20:37;4.78;;;3.15;;
13051;SDS011;6592;47.484;9.726;2023-06-26T01:23:13;5.75;;;3.58;;
13051;SDS011;6592;47.484;9.726;2023-06-26T01:25:53;6.45;;;3.10;;
13051;SDS011;6592;47.484;9.726;2023-06-26T01:28:35;5.70;;;3.40;;
13051;SDS011;6592;47.484;9.726;2023-06-26T01:31:09;5.93;;;3.33;;
13051;SDS011;6592;47.484;9.726;2023-06-26T01:33:39;6.38;;;3.55;;
13051;SDS011;6592;47.484;9.726;2023-06-26T01:36:09;5.23;;;3.10;;
13051;SDS011;6592;47.484;9.726;2023-06-26T01:38:38;6.13;;;3.47;;
13051;SDS011;6592;47.484;9.726;2023-06-26T01:41:10;5.93;;;3.58;;
13051;SDS011;6592;47.484;9.726;2023-06-26T01:43:41;6.35;;;3.50;;
13051;SDS011;6592;47.484;9.726;2023-06-26T01:46:21;5.63;;;3.40;;
13051;SDS011;6592;47.484;9.726;2023-06-26T01:48:55;7.95;;;3.72;;
13051;SDS011;6592;47.484;9.726;2023-06-26T01:51:30;5.55;;;3.35;;
13051;SDS011;6592;47.484;9.726;2023-06-26T01:54:03;7.07;;;3.80;;
13051;SDS011;6592;47.484;9.726;2023-06-26T01:56:39;5.43;;;3.28;;
13051;SDS011;6592;47.484;9.726;2023-06-26T01:59:10;5.82;;;3.17;;
13051;SDS011;6592;47.484;9.726;2023-06-26T02:01:41;8.20;;;3.50;;
13051;SDS011;6592;47.484;9.726;2023-06-26T02:04:10;5.70;;;3.30;;
13051;SDS011;6592;47.484;9.726;2023-06-26T02:06:40;6.50;;;3.20;;
13051;SDS011;6592;47.484;9.726;2023-06-26T02:09:09;6.45;;;3.60;;
13051;SDS011;6592;47.484;9.726;2023-06-26T02:11:41;5.60;;;3.33;;
13051;SDS011;6592;47.484;9.726;2023-06-26T02:14:10;6.53;;;3.47;;
13051;SDS011;6592;47.484;9.726;2023-06-26T02:16:39;5.93;;;3.60;;
13051;SDS011;6592;47.484;9.726;2023-06-26T02:19:08;6.07;;;3.22;;
13051;SDS011;6592;47.484;9.726;2023-06-26T02:21:37;5.50;;;3.40;;
13051;SDS011;6592;47.484;9.726;2023-06-26T02:24:06;5.50;;;3.40;;
13051;SDS011;6592;47.484;9.726;2023-06-26T02:26:36;6.28;;;3.70;;
13051;SDS011;6592;47.484;9.726;2023-06-26T02:29:08;7.13;;;3.70;;
13051;SDS011;6592;47.484;9.726;2023-06-26T02:31:39;7.07;;;3.47;;
13051;SDS011;6592;47.484;9.726;2023-06-26T02:34:09;7.63;;;3.83;;
13051;SDS011;6592;47.484;9.726;2023-06-26T02:36:38;6.13;;;3.67;;
13051;SDS011;6592;47.484;9.726;2023-06-26T02:39:07;5.57;;;3.20;;
13051;SDS011;6592;47.484;9.726;2023-06-26T02:41:35;6.10;;;3.70;;
13051;SDS011;6592;47.484;9.726;2023-06-26T02:44:05;7.05;;;3.33;;
13051;SDS011;6592;47.484;9.726;2023-06-26T02:46:38;6.32;;;3.70;;
13051;SDS011;6592;47.484;9.726;2023-06-26T02:49:07;5.88;;;3.50;;
13051;SDS011;6592;47.484;9.726;2023-06-26T02:51:37;5.82;;;3.35;;
13051;SDS011;6592;47.484;9.726;2023-06-26T02:54:06;6.82;;;3.67;;
13051;SDS011;6592;47.484;9.726;2023-06-26T02:56:35;7.20;;;3.45;;
13051;SDS011;6592;47.484;9.726;2023-06-26T02:59:15;7.35;;;3.83;;
13051;SDS011;6592;47.484;9.726;2023-06-26T03:01:45;7.38;;;3.63;;
13051;SDS011;6592;47.484;9.726;2023-06-26T03:04:14;6.18;;;3.38;;
13051;SDS011;6592;47.484;9.726;2023-06-26T03:06:45;6.10;;;3.60;;
13051;SDS011;6592;47.484;9.726;2023-06-26T03:09:14;8.30;;;4.07;;
13051;SDS011;6592;47.484;9.726;2023-06-26T03:11:44;7.50;;;3.70;;
13051;SDS011;6592;47.484;9.726;2023-06-26T03:14:13;7.15;;;3.80;;
13051;SDS011;6592;47.484;9.726;2023-06-26T03:16:43;6.10;;;3.50;;
13051;SDS011;6592;47.484;9.726;2023-06-26T03:19:13;6.70;;;3.72;;
13051;SDS011;6592;47.484;9.726;2023-06-26T03:21:42;7.25;;;3.78;;
13051;SDS011;6592;47.484;9.726;2023-06-26T03:24:10;6.82;;;3.72;;
13051;SDS011;6592;47.484;9.726;2023-06-26T03:26:39;6.88;;;3.50;;
13051;SDS011;6592;47.484;9.726;2023-06-26T03:29:08;6.53;;;3.53;;
13051;SDS011;6592;47.484;9.726;2023-06-26T03:31:38;5.85;;;3.55;;
13051;SDS011;6592;47.484;9.726;2023-06-26T03:34:07;5.72;;;3.50;;
13051;SDS011;6592;47.484;9.726;2023-06-26T03:36:37;6.60;;;3.63;;
13051;SDS011;6592;47.484;9.726;2023-06-26T03:39:06;6.78;;;3.58;;
13051;SDS011;6592;47.484;9.726;2023-06-26T03:41:40;6.90;;;3.60;;
13051;SDS011;6592;47.484;9.726;2023-06-26T03:44:09;6.78;;;3.55;;
13051;SDS011;6592;47.484;9.726;2023-06-26T03:46:40;7.53;;;3.65;;
13051;SDS011;6592;47.484;9.726;2023-06-26T03:49:09;5.32;;;3.40;;
13051;SDS011;6592;47.484;9.726;2023-06-26T03:51:39;6.68;;;3.70;;
13051;SDS011;6592;47.484;9.726;2023-06-26T03:54:08;5.88;;;3.58;;
13051;SDS011;6592;47.484;9.726;2023-06-26T03:56:37;7.30;;;3.47;;
13051;SDS011;6592;47.484;9.726;2023-06-26T03:59:08;6.83;;;3.47;;
13051;SDS011;6592;47.484;9.726;2023-06-26T04:01:40;7.93;;;3.95;;
13051;SDS011;6592;47.484;9.726;2023-06-26T04:04:09;6.53;;;3.80;;
13051;SDS011;6592;47.484;9.726;2023-06-26T04:06:38;6.05;;;3.78;;
13051;SDS011;6592;47.484;9.726;2023-06-26T04:09:06;6.30;;;3.60;;
13051;SDS011;6592;47.484;9.726;2023-06-26T04:11:36;6.88;;;4.05;;
13051;SDS011;6592;47.484;9.726;2023-06-26T04:14:06;6.07;;;3.58;;
13051;SDS011;6592;47.484;9.726;2023-06-26T04:16:35;5.60;;;3.30;;
13051;SDS011;6592;47.484;9.726;2023-06-26T04:19:06;10.95;;;3.90;;
13051;SDS011;6592;47.484;9.726;2023-06-26T04:21:38;5.53;;;3.40;;
13051;SDS011;6592;47.484;9.726;2023-06-26T04:24:07;7.07;;;4.07;;
13051;SDS011;6592;47.484;9.726;2023-06-26T04:26:40;5.97;;;3.75;;
13051;SDS011;6592;47.484;9.726;2023-06-26T04:29:09;7.72;;;4.20;;
13051;SDS011;6592;47.484;9.726;2023-06-26T04:31:38;6.65;;;3.67;;
13051;SDS011;6592;47.484;9.726;2023-06-26T04:34:08;5.40;;;3.42;;
13051;SDS011;6592;47.484;9.726;2023-06-26T04:36:38;5.47;;;3.38;;
13051;SDS011;6592;47.484;9.726;2023-06-26T04:39:07;6.63;;;3.65;;
13051;SDS011;6592;47.484;9.726;2023-06-26T04:41:36;7.03;;;4.10;;
13051;SDS011;6592;47.484;9.726;2023-06-26T04:44:04;7.30;;;3.55;;
13051;SDS011;6592;47.484;9.726;2023-06-26T04:46:33;6.35;;;3.88;;
13051;SDS011;6592;47.484;9.726;2023-06-26T04:49:02;6.53;;;3.50;;
13051;SDS011;6592;47.484;9.726;2023-06-26T04:51:32;8.82;;;3.72;;
13051;SDS011;6592;47.484;9.726;2023-06-26T04:54:07;6.43;;;3.60;;
13051;SDS011;6592;47.484;9.726;2023-06-26T04:56:38;6.60;;;3.95;;
13051;SDS011;6592;47.484;9.726;2023-06-26T04:59:08;6.75;;;3.70;;
13051;SDS011;6592;47.484;9.726;2023-06-26T05:01:40;6.53;;;3.55;;
13051;SDS011;6592;47.484;9.726;2023-06-26T05:04:09;8.63;;;4.18;;
13051;SDS011;6592;47.484;9.726;2023-06-26T05:06:41;6.95;;;3.92;;
13051;SDS011;6592;47.484;9.726;2023-06-26T05:09:10;8.43;;;3.65;;
13051;SDS011;6592;47.484;9.726;2023-06-26T05:11:39;7.00;;;4.10;;
13051;SDS011;6592;47.484;9.726;2023-06-26T05:14:08;6.50;;;3.90;;
13051;SDS011;6592;47.484;9.726;2023-06-26T05:16:37;6.57;;;4.28;;
13051;SDS011;6592;47.484;9.726;2023-06-26T05:19:08;6.37;;;3.70;;
13051;SDS011;6592;47.484;9.726;2023-06-26T05:21:36;6.38;;;3.33;;
13051;SDS011;6592;47.484;9.726;2023-06-26T05:24:09;5.47;;;3.60;;
13051;SDS011;6592;47.484;9.726;2023-06-26T05:26:42;7.10;;;3.92;;
13051;SDS011;6592;47.484;9.726;2023-06-26T05:29:12;6.43;;;3.78;;
13051;SDS011;6592;47.484;9.726;2023-06-26T05:31:44;6.72;;;4.00;;
13051;SDS011;6592;47.484;9.726;2023-06-26T05:34:15;6.57;;;3.63;;
13051;SDS011;6592;47.484;9.726;2023-06-26T05:36:46;10.95;;;4.00;;
13051;SDS011;6592;47.484;9.726;2023-06-26T05:39:20;7.35;;;3.97;;
13051;SDS011;6592;47.484;9.726;2023-06-26T05:41:51;7.05;;;4.03;;
13051;SDS011;6592;47.484;9.726;2023-06-26T05:44:21;5.88;;;3.58;;
13051;SDS011;6592;47.484;9.726;2023-06-26T05:46:50;6.93;;;3.63;;
13051;SDS011;6592;47.484;9.726;2023-06-26T05:49:19;8.07;;;4.10;;
13051;SDS011;6592;47.484;9.726;2023-06-26T05:51:48;6.25;;;3.70;;
13051;SDS011;6592;47.484;9.726;2023-06-26T05:54:17;6.78;;;3.45;;
13051;SDS011;6592;47.484;9.726;2023-06-26T05:56:51;6.65;;;4.13;;
13051;SDS011;6592;47.484;9.726;2023-06-26T05:59:25;12.20;;;4.53;;
13051;SDS011;6592;47.484;9.726;2023-06-26T06:01:54;6.97;;;3.60;;
13051;SDS011;6592;47.484;9.726;2023-06-26T06:04:23;8.63;;;4.03;;
13051;SDS011;6592;47.484;9.726;2023-06-26T06:09:27;5.90;;;3.35;;
13051;SDS011;6592;47.484;9.726;2023-06-26T06:11:56;7.30;;;3.88;;
13051;SDS011;6592;47.484;9.726;2023-06-26T06:14:26;5.65;;;3.72;;
13051;SDS011;6592;47.484;9.726;2023-06-26T06:16:57;8.40;;;4.55;;
13051;SDS011;6592;47.484;9.726;2023-06-26T06:19:27;8.60;;;3.88;;
13051;SDS011;6592;47.484;9.726;2023-06-26T06:21:56;7.75;;;4.07;;
13051;SDS011;6592;47.484;9.726;2023-06-26T06:24:27;7.32;;;4.28;;
13051;SDS011;6592;47.484;9.726;2023-06-26T06:26:56;10.20;;;4.80;;
13051;SDS011;6592;47.484;9.726;2023-06-26T06:29:28;6.80;;;4.03;;
13051;SDS011;6592;47.484;9.726;2023-06-26T06:31:57;6.38;;;4.15;;
13051;SDS011;6592;47.484;9.726;2023-06-26T06:34:27;6.43;;;3.97;;
13051;SDS011;6592;47.484;9.726;2023-06-26T06:36:56;7.37;;;4.40;;
13051;SDS011;6592;47.484;9.726;2023-06-26T06:39:25;7.00;;;4.35;;
13051;SDS011;6592;47.484;9.726;2023-06-26T06:41:56;7.25;;;4.30;;
13051;SDS011;6592;47.484;9.726;2023-06-26T06:44:26;7.27;;;4.30;;
13051;SDS011;6592;47.484;9.726;2023-06-26T06:46:57;9.05;;;4.22;;
13051;SDS011;6592;47.484;9.726;2023-06-26T06:49:29;7.18;;;4.15;;
13051;SDS011;6592;47.484;9.726;2023-06-26T06:51:59;8.70;;;4.47;;
13051;SDS011;6592;47.484;9.726;2023-06-26T06:54:29;8.25;;;4.40;;
13051;SDS011;6592;47.484;9.726;2023-06-26T06:56:58;6.53;;;4.32;;
13051;SDS011;6592;47.484;9.726;2023-06-26T06:59:27;5.78;;;3.92;;
13051;SDS011;6592;47.484;9.726;2023-06-26T07:01:57;6.85;;;4.20;;
13051;SDS011;6592;47.484;9.726;2023-06-26T07:04:28;7.13;;;4.13;;
13051;SDS011;6592;47.484;9.726;2023-06-26T07:06:58;7.03;;;4.35;;
13051;SDS011;6592;47.484;9.726;2023-06-26T07:09:30;7.18;;;4.20;;
13051;SDS011;6592;47.484;9.726;2023-06-26T07:11:59;6.90;;;4.20;;
13051;SDS011;6592;47.484;9.726;2023-06-26T07:17:00;7.20;;;4.40;;
13051;SDS011;6592;47.484;9.726;2023-06-26T07:19:30;12.32;;;4.80;;
13051;SDS011;6592;47.484;9.726;2023-06-26T07:21:59;6.95;;;4.40;;
13051;SDS011;6592;47.484;9.726;2023-06-26T07:24:30;6.60;;;4.38;;
13051;SDS011;6592;47.484;9.726;2023-06-26T07:26:59;6.47;;;4.50;;
13051;SDS011;6592;47.484;9.726;2023-06-26T07:29:28;7.55;;;4.72;;
13051;SDS011;6592;47.484;9.726;2023-06-26T07:31:57;7.00;;;4.40;;
13051;SDS011;6592;47.484;9.726;2023-06-26T07:34:26;8.52;;;4.50;;
13051;SDS011;6592;47.484;9.726;2023-06-26T07:36:54;6.85;;;4.28;;
13051;SDS011;6592;47.484;9.726;2023-06-26T07:39:23;7.57;;;4.45;;
13051;SDS011;6592;47.484;9.726;2023-06-26T07:41:57;8.55;;;4.60;;
13051;SDS011;6592;47.484;9.726;2023-06-26T07:46:54;8.27;;;4.80;;
13051;SDS011;6592;47.484;9.726;2023-06-26T07:49:23;7.93;;;4.18;;
13051;SDS011;6592;47.484;9.726;2023-06-26T07:51:53;8.15;;;4.78;;
13051;SDS011;6592;47.484;9.726;2023-06-26T07:54:22;7.43;;;4.53;;
13051;SDS011;6592;47.484;9.726;2023-06-26T07:56:54;8.50;;;4.65;;
13051;SDS011;6592;47.484;9.726;2023-06-26T07:59:28;7.20;;;4.40;;
13051;SDS011;6592;47.484;9.726;2023-06-26T08:01:57;7.65;;;4.10;;
13051;SDS011;6592;47.484;9.726;2023-06-26T08:04:27;7.85;;;4.25;;
13051;SDS011;6592;47.484;9.726;2023-06-26T08:06:59;6.53;;;4.68;;
13051;SDS011;6592;47.484;9.726;2023-06-26T08:09:28;7.93;;;4.60;;
13051;SDS011;6592;47.484;9.726;2023-06-26T08:11:59;6.93;;;4.38;;
13051;SDS011;6592;47.484;9.726;2023-06-26T08:14:28;7.72;;;4.47;;
13051;SDS011;6592;47.484;9.726;2023-06-26T08:16:58;7.60;;;4.03;;
13051;SDS011;6592;47.484;9.726;2023-06-26T08:19:27;6.97;;;4.80;;
13051;SDS011;6592;47.484;9.726;2023-06-26T08:21:56;7.90;;;4.25;;
13051;SDS011;6592;47.484;9.726;2023-06-26T08:24:25;7.47;;;4.07;;
13051;SDS011;6592;47.484;9.726;2023-06-26T08:26:55;5.60;;;3.95;;
13051;SDS011;6592;47.484;9.726;2023-06-26T08:29:25;8.25;;;4.50;;
13051;SDS011;6592;47.484;9.726;2023-06-26T08:31:54;5.88;;;4.28;;
13051;SDS011;6592;47.484;9.726;2023-06-26T08:34:23;6.47;;;4.07;;
13051;SDS011;6592;47.484;9.726;2023-06-26T08:36:53;6.57;;;4.10;;
13051;SDS011;6592;47.484;9.726;2023-06-26T08:39:22;5.75;;;4.00;;
13051;SDS011;6592;47.484;9.726;2023-06-26T08:41:53;6.47;;;4.43;;
13051;SDS011;6592;47.484;9.726;2023-06-26T08:44:23;7.00;;;4.32;;
13051;SDS011;6592;47.484;9.726;2023-06-26T08:46:53;7.75;;;4.47;;
13051;SDS011;6592;47.484;9.726;2023-06-26T08:49:37;6.75;;;4.22;;
13051;SDS011;6592;47.484;9.726;2023-06-26T08:52:13;6.43;;;4.25;;
13051;SDS011;6592;47.484;9.726;2023-06-26T08:54:48;6.90;;;4.20;;
13051;SDS011;6592;47.484;9.726;2023-06-26T08:57:22;5.35;;;4.07;;
13051;SDS011;6592;47.484;9.726;2023-06-26T08:59:53;5.25;;;3.95;;
13051;SDS011;6592;47.484;9.726;2023-06-26T09:02:27;5.45;;;3.92;;
13051;SDS011;6592;47.484;9.726;2023-06-26T09:04:56;8.18;;;4.25;;
13051;SDS011;6592;47.484;9.726;2023-06-26T09:07:25;6.43;;;4.10;;
13051;SDS011;6592;47.484;9.726;2023-06-26T09:09:54;6.25;;;4.20;;
13051;SDS011;6592;47.484;9.726;2023-06-26T09:12:22;8.32;;;4.22;;
13051;SDS011;6592;47.484;9.726;2023-06-26T09:14:54;7.95;;;4.25;;
13051;SDS011;6592;47.484;9.726;2023-06-26T09:17:26;6.88;;;4.35;;
13051;SDS011;6592;47.484;9.726;2023-06-26T09:19:58;5.40;;;3.85;;
13051;SDS011;6592;47.484;9.726;2023-06-26T09:22:27;5.00;;;4.00;;
13051;SDS011;6592;47.484;9.726;2023-06-26T09:24:56;6.17;;;4.27;;
13051;SDS011;6592;47.484;9.726;2023-06-26T09:27:25;8.13;;;4.60;;
13051;SDS011;6592;47.484;9.726;2023-06-26T09:29:56;6.40;;;4.20;;
13051;SDS011;6592;47.484;9.726;2023-06-26T09:32:27;6.38;;;4.03;;
13051;SDS011;6592;47.484;9.726;2023-06-26T09:34:56;6.75;;;4.00;;
13051;SDS011;6592;47.484;9.726;2023-06-26T09:39:56;5.55;;;4.10;;
13051;SDS011;6592;47.484;9.726;2023-06-26T09:42:24;5.90;;;4.10;;
13051;SDS011;6592;47.484;9.726;2023-06-26T09:44:54;5.32;;;4.00;;
13051;SDS011;6592;47.484;9.726;2023-06-26T09:47:23;5.68;;;3.92;;
13051;SDS011;6592;47.484;9.726;2023-06-26T09:49:54;5.50;;;3.83;;
13051;SDS011;6592;47.484;9.726;2023-06-26T09:55:06;6.85;;;3.67;;
13051;SDS011;6592;47.484;9.726;2023-06-26T09:57:37;5.07;;;3.88;;
13051;SDS011;6592;47.484;9.726;2023-06-26T10:00:12;5.57;;;3.85;;
13051;SDS011;6592;47.484;9.726;2023-06-26T10:02:42;4.90;;;3.60;;
13051;SDS011;6592;47.484;9.726;2023-06-26T10:05:14;5.23;;;3.80;;
13051;SDS011;6592;47.484;9.726;2023-06-26T10:07:44;5.10;;;3.65;;
13051;SDS011;6592;47.484;9.726;2023-06-26T10:10:13;5.00;;;3.70;;
13051;SDS011;6592;47.484;9.726;2023-06-26T10:12:44;8.13;;;4.25;;
13051;SDS011;6592;47.484;9.726;2023-06-26T10:15:16;5.13;;;4.10;;
13051;SDS011;6592;47.484;9.726;2023-06-26T10:17:47;5.40;;;3.90;;
13051;SDS011;6592;47.484;9.726;2023-06-26T10:20:20;5.13;;;3.78;;
13051;SDS011;6592;47.484;9.726;2023-06-26T10:22:49;4.85;;;3.55;;
13051;SDS011;6592;47.484;9.726;2023-06-26T10:25:18;5.60;;;3.83;;
13051;SDS011;6592;47.484;9.726;2023-06-26T10:27:51;5.45;;;3.80;;
13051;SDS011;6592;47.484;9.726;2023-06-26T10:30:24;4.95;;;3.55;;
13051;SDS011;6592;47.484;9.726;2023-06-26T10:32:56;6.40;;;3.80;;
13051;SDS011;6592;47.484;9.726;2023-06-26T10:35:27;5.18;;;3.95;;
13051;SDS011;6592;47.484;9.726;2023-06-26T10:40:39;5.65;;;3.47;;
13051;SDS011;6592;47.484;9.726;2023-06-26T10:43:09;5.90;;;3.80;;
13051;SDS011;6592;47.484;9.726;2023-06-26T10:45:42;6.18;;;3.83;;
13051;SDS011;6592;47.484;9.726;2023-06-26T10:48:13;5.28;;;3.70;;
13051;SDS011;6592;47.484;9.726;2023-06-26T10:50:45;6.05;;;3.95;;
13051;SDS011;6592;47.484;9.726;2023-06-26T10:53:15;4.50;;;3.53;;
13051;SDS011;6592;47.484;9.726;2023-06-26T10:55:55;5.25;;;3.72;;
13051;SDS011;6592;47.484;9.726;2023-06-26T10:58:29;5.93;;;3.83;;
13051;SDS011;6592;47.484;9.726;2023-06-26T11:01:19;4.90;;;3.75;;
13051;SDS011;6592;47.484;9.726;2023-06-26T11:06:39;5.50;;;3.58;;
13051;SDS011;6592;47.484;9.726;2023-06-26T11:09:09;6.00;;;3.97;;
13051;SDS011;6592;47.484;9.726;2023-06-26T11:11:58;6.20;;;4.07;;
13051;SDS011;6592;47.484;9.726;2023-06-26T11:14:33;4.68;;;3.55;;
13051;SDS011;6592;47.484;9.726;2023-06-26T11:17:04;6.93;;;4.05;;
13051;SDS011;6592;47.484;9.726;2023-06-26T11:19:35;5.30;;;3.88;;
13051;SDS011;6592;47.484;9.726;2023-06-26T11:22:07;4.53;;;3.30;;
13051;SDS011;6592;47.484;9.726;2023-06-26T11:24:35;5.30;;;3.80;;
13051;SDS011;6592;47.484;9.726;2023-06-26T11:27:07;5.30;;;3.83;;
13051;SDS011;6592;47.484;9.726;2023-06-26T11:29:36;5.05;;;3.50;;
13051;SDS011;6592;47.484;9.726;2023-06-26T11:32:05;5.00;;;3.60;;
13051;SDS011;6592;47.484;9.726;2023-06-26T11:34:38;5.18;;;3.58;;
13051;SDS011;6592;47.484;9.726;2023-06-26T11:37:11;5.65;;;4.03;;
13051;SDS011;6592;47.484;9.726;2023-06-26T11:39:40;5.70;;;3.90;;
13051;SDS011;6592;47.484;9.726;2023-06-26T11:42:08;6.78;;;3.58;;
13051;SDS011;6592;47.484;9.726;2023-06-26T11:44:40;5.28;;;3.53;;
13051;SDS011;6592;47.484;9.726;2023-06-26T11:47:13;4.15;;;3.13;;
13051;SDS011;6592;47.484;9.726;2023-06-26T11:49:44;4.88;;;3.60;;
13051;SDS011;6592;47.484;9.726;2023-06-26T11:52:16;5.07;;;3.78;;
13051;SDS011;6592;47.484;9.726;2023-06-26T11:54:45;4.93;;;3.70;;
13051;SDS011;6592;47.484;9.726;2023-06-26T11:57:16;4.05;;;3.30;;
13051;SDS011;6592;47.484;9.726;2023-06-26T11:59:45;5.32;;;3.60;;
13051;SDS011;6592;47.484;9.726;2023-06-26T12:02:21;5.60;;;3.50;;
13051;SDS011;6592;47.484;9.726;2023-06-26T12:04:50;4.68;;;3.60;;
13051;SDS011;6592;47.484;9.726;2023-06-26T12:07:20;5.30;;;3.42;;
13051;SDS011;6592;47.484;9.726;2023-06-26T12:09:54;5.82;;;3.90;;
13051;SDS011;6592;47.484;9.726;2023-06-26T12:12:26;5.93;;;3.88;;
13051;SDS011;6592;47.484;9.726;2023-06-26T12:14:54;5.00;;;3.58;;
13051;SDS011;6592;47.484;9.726;2023-06-26T12:17:24;4.68;;;3.30;;
13051;SDS011;6592;47.484;9.726;2023-06-26T12:19:54;5.03;;;3.50;;
13051;SDS011;6592;47.484;9.726;2023-06-26T12:22:24;4.50;;;3.33;;
13051;SDS011;6592;47.484;9.726;2023-06-26T12:25:03;5.15;;;3.55;;
13051;SDS011;6592;47.484;9.726;2023-06-26T12:27:37;4.90;;;3.47;;
13051;SDS011;6592;47.484;9.726;2023-06-26T12:30:06;5.05;;;3.58;;
13051;SDS011;6592;47.484;9.726;2023-06-26T12:32:38;4.88;;;3.60;;
13051;SDS011;6592;47.484;9.726;2023-06-26T12:35:08;5.25;;;3.22;;
13051;SDS011;6592;47.484;9.726;2023-06-26T12:37:39;5.43;;;3.72;;
13051;SDS011;6592;47.484;9.726;2023-06-26T12:40:17;5.90;;;3.53;;
13051;SDS011;6592;47.484;9.726;2023-06-26T12:42:49;9.82;;;3.83;;
13051;SDS011;6592;47.484;9.726;2023-06-26T12:45:17;4.95;;;3.47;;
13051;SDS011;6592;47.484;9.726;2023-06-26T12:47:50;4.70;;;3.35;;
13051;SDS011;6592;47.484;9.726;2023-06-26T12:50:19;8.40;;;3.35;;
13051;SDS011;6592;47.484;9.726;2023-06-26T12:52:50;6.80;;;4.00;;
13051;SDS011;6592;47.484;9.726;2023-06-26T12:55:19;5.55;;;3.80;;
13051;SDS011;6592;47.484;9.726;2023-06-26T12:57:49;6.45;;;3.50;;
13051;SDS011;6592;47.484;9.726;2023-06-26T13:00:18;9.63;;;4.20;;
13051;SDS011;6592;47.484;9.726;2023-06-26T13:02:47;8.65;;;3.80;;
13051;SDS011;6592;47.484;9.726;2023-06-26T13:05:16;5.45;;;3.67;;
13051;SDS011;6592;47.484;9.726;2023-06-26T13:07:45;5.18;;;3.63;;
13051;SDS011;6592;47.484;9.726;2023-06-26T13:10:15;5.22;;;3.67;;
13051;SDS011;6592;47.484;9.726;2023-06-26T13:12:44;5.78;;;3.72;;
13051;SDS011;6592;47.484;9.726;2023-06-26T13:15:13;5.30;;;3.53;;
13051;SDS011;6592;47.484;9.726;2023-06-26T13:17:41;5.75;;;3.60;;
13051;SDS011;6592;47.484;9.726;2023-06-26T13:20:11;5.72;;;3.70;;
13051;SDS011;6592;47.484;9.726;2023-06-26T13:22:42;8.52;;;4.05;;
13051;SDS011;6592;47.484;9.726;2023-06-26T13:25:12;5.85;;;3.40;;
13051;SDS011;6592;47.484;9.726;2023-06-26T13:27:42;5.00;;;3.53;;
13051;SDS011;6592;47.484;9.726;2023-06-26T13:30:11;5.70;;;4.00;;
13051;SDS011;6592;47.484;9.726;2023-06-26T13:32:44;4.80;;;3.38;;
13051;SDS011;6592;47.484;9.726;2023-06-26T13:35:12;6.03;;;3.58;;
13051;SDS011;6592;47.484;9.726;2023-06-26T13:37:41;6.68;;;3.80;;
13051;SDS011;6592;47.484;9.726;2023-06-26T13:40:11;6.30;;;4.03;;
13051;SDS011;6592;47.484;9.726;2023-06-26T13:42:41;5.50;;;3.78;;
13051;SDS011;6592;47.484;9.726;2023-06-26T13:45:12;5.43;;;3.45;;
13051;SDS011;6592;47.484;9.726;2023-06-26T13:47:56;5.45;;;3.50;;
13051;SDS011;6592;47.484;9.726;2023-06-26T13:50:25;5.90;;;3.90;;
13051;SDS011;6592;47.484;9.726;2023-06-26T13:53:13;7.13;;;3.92;;
13051;SDS011;6592;47.484;9.726;2023-06-26T13:55:43;5.75;;;3.85;;
13051;SDS011;6592;47.484;9.726;2023-06-26T13:58:15;5.30;;;3.80;;
13051;SDS011;6592;47.484;9.726;2023-06-26T14:00:49;6.18;;;3.40;;
13051;SDS011;6592;47.484;9.726;2023-06-26T14:03:20;5.82;;;3.67;;
13051;SDS011;6592;47.484;9.726;2023-06-26T14:05:49;5.43;;;3.47;;
13051;SDS011;6592;47.484;9.726;2023-06-26T14:08:18;5.72;;;3.53;;
13051;SDS011;6592;47.484;9.726;2023-06-26T14:10:47;5.82;;;4.05;;
13051;SDS011;6592;47.484;9.726;2023-06-26T14:13:29;6.05;;;3.85;;
13051;SDS011;6592;47.484;9.726;2023-06-26T14:15:57;4.88;;;3.55;;
13051;SDS011;6592;47.484;9.726;2023-06-26T14:18:27;5.63;;;3.50;;
13051;SDS011;6592;47.484;9.726;2023-06-26T14:20:55;6.15;;;3.88;;
13051;SDS011;6592;47.484;9.726;2023-06-26T14:23:24;5.47;;;4.00;;
13051;SDS011;6592;47.484;9.726;2023-06-26T14:25:53;5.53;;;3.63;;
13051;SDS011;6592;47.484;9.726;2023-06-26T14:28:22;5.68;;;3.92;;
13051;SDS011;6592;47.484;9.726;2023-06-26T14:30:53;5.50;;;3.65;;
13051;SDS011;6592;47.484;9.726;2023-06-26T14:33:23;6.18;;;3.60;;
13051;SDS011;6592;47.484;9.726;2023-06-26T14:35:52;5.88;;;3.72;;
13051;SDS011;6592;47.484;9.726;2023-06-26T14:38:21;6.28;;;3.88;;
13051;SDS011;6592;47.484;9.726;2023-06-26T14:40:49;6.20;;;4.05;;
13051;SDS011;6592;47.484;9.726;2023-06-26T14:43:20;5.20;;;3.70;;
13051;SDS011;6592;47.484;9.726;2023-06-26T14:45:50;7.93;;;3.90;;
13051;SDS011;6592;47.484;9.726;2023-06-26T14:48:20;6.05;;;3.92;;
13051;SDS011;6592;47.484;9.726;2023-06-26T14:53:20;6.57;;;3.95;;
13051;SDS011;6592;47.484;9.726;2023-06-26T14:58:21;6.95;;;4.35;;
13051;SDS011;6592;47.484;9.726;2023-06-26T15:00:53;5.50;;;3.83;;
13051;SDS011;6592;47.484;9.726;2023-06-26T15:03:25;6.25;;;4.20;;
13051;SDS011;6592;47.484;9.726;2023-06-26T15:05:54;9.40;;;4.90;;
13051;SDS011;6592;47.484;9.726;2023-06-26T15:08:23;5.72;;;3.95;;
13051;SDS011;6592;47.484;9.726;2023-06-26T15:10:52;7.20;;;4.07;;
13051;SDS011;6592;47.484;9.726;2023-06-26T15:13:22;7.20;;;4.00;;
13051;SDS011;6592;47.484;9.726;2023-06-26T15:15:51;6.10;;;4.15;;
13051;SDS011;6592;47.484;9.726;2023-06-26T15:18:20;5.80;;;4.13;;
13051;SDS011;6592;47.484;9.726;2023-06-26T15:20:50;6.30;;;4.25;;
13051;SDS011;6592;47.484;9.726;2023-06-26T15:23:19;6.18;;;3.90;;
13051;SDS011;6592;47.484;9.726;2023-06-26T15:25:47;7.40;;;3.92;;
13051;SDS011;6592;47.484;9.726;2023-06-26T15:28:17;6.80;;;3.92;;
13051;SDS011;6592;47.484;9.726;2023-06-26T15:30:47;7.03;;;4.57;;
13051;SDS011;6592;47.484;9.726;2023-06-26T15:33:17;6.25;;;3.97;;
13051;SDS011;6592;47.484;9.726;2023-06-26T15:35:45;6.40;;;4.00;;
13051;SDS011;6592;47.484;9.726;2023-06-26T15:38:19;6.68;;;4.43;;
13051;SDS011;6592;47.484;9.726;2023-06-26T15:40:48;6.45;;;4.25;;
13051;SDS011;6592;47.484;9.726;2023-06-26T15:43:18;6.20;;;4.15;;